< Cyclone 199615 1997 Season Cyclone 199702 >
Cyclone 199701 (LINDSAY)
General InformationTrack Information on Google MapsDetailed Wind InformationList of All Images || ResourceGoogle EarthGE AnimationAtom FeedGeoJSON
Detalied Best Track (Time Zone = UTC)
Year Month Day Hour Lat. Long. Pressure (hPa) Wind (kt) Class Image Chart
1996 7 9 10 -9.2 93.3 1004 21 2 Image --
1996 7 9 12 -9.6 93.0 1004 21 2 Image --
1996 7 9 15 -9.9 92.8 1002 23 2 Image --
1996 7 9 18 -10.2 92.6 1002 23 2 Image --
1996 7 9 21 -10.6 92.5 1000 27 2 Image --
1996 7 10 00 -11.0 92.4 1000 27 2 Image --
1996 7 10 03 -11.3 92.3 998 29 2 Image --
1996 7 10 06 -11.6 92.2 998 29 2 Image --
1996 7 10 09 -11.9 92.1 995 35 3 Image --
1996 7 10 12 -12.1 92.0 990 41 3 Image --
1996 7 10 15 -12.2 92.0 990 41 3 Image --
1996 7 10 18 -12.2 92.0 990 41 3 Image --
1996 7 10 21 -12.2 92.0 990 41 3 Image --
1996 7 11 00 -12.2 92.0 990 41 3 Image --
1996 7 11 03 -12.2 92.1 992 39 3 Image --
1996 7 11 06 -12.3 92.2 994 35 3 Image --
1996 7 11 09 -12.3 92.3 996 33 2 Image --
1996 7 11 12 -12.4 92.4 998 29 2 Image --
1996 7 11 15 -12.4 92.5 998 29 2 Image --
1996 7 11 18 -12.5 92.6 998 29 2 Image --
1996 7 11 21 -12.6 92.7 998 29 2 Image --
1996 7 12 00 -12.8 92.9 998 29 2 Image --
1996 7 12 03 -13.1 93.2 998 29 2 Image --
1996 7 12 06 -13.4 93.5 998 29 2 Image --
1996 7 12 09 -13.7 93.8 998 29 2 Image --
1996 7 12 12 -14.0 94.1 998 29 2 Image --
1996 7 12 15 -14.3 94.4 998 29 2 Image --
1996 7 12 18 -14.6 94.7 998 29 2 Image --
1996 7 12 21 -14.9 95.0 998 29 2 Image --
1996 7 13 00 -15.2 95.3 1000 27 2 Image --
< Cyclone 199615 1997 Season Cyclone 199702 >

Help